Time;durP1;ratioP1;P1;durP2;ratioP2;P2;SDS_P1;SDS_P2;PMS_P1;PMS_P2;Temp;Humidity;BMP_temperature;BMP_pressure;BME280_temperature;BME280_humidity;BME280_pressure;Samples;Min_cycle;Max_cycle;Signal;HPM_P1;HPM_P2
2022/01/02 00:04:21;;;;;;;47.87;27.50;;;10.30;99.90;;;;;;10250781;29;20231;-91
2022/01/02 00:09:36;;;;;;;43.97;23.83;;;10.20;99.90;;;;;;10237993;29;20238;-92
2022/01/02 00:14:43;;;;;;;56.33;28.93;;;10.00;99.90;;;;;;10253109;29;20223;-93
2022/01/02 00:19:52;;;;;;;58.00;28.53;;;9.80;99.90;;;;;;10252894;29;20202;-89
2022/01/02 00:24:57;;;;;;;44.97;24.73;;;9.60;99.90;;;;;;10222382;29;20321;-89
2022/01/02 00:30:01;;;;;;;46.03;24.63;;;9.70;99.90;;;;;;10199453;29;20242;-88
2022/01/02 00:35:04;;;;;;;36.23;21.57;;;9.70;99.90;;;;;;10210545;29;20313;-88
2022/01/02 00:40:07;;;;;;;46.00;23.93;;;9.60;99.90;;;;;;10177708;29;20246;-89
2022/01/02 00:45:20;;;;;;;40.77;22.90;;;9.50;99.90;;;;;;10210149;29;20254;-88
2022/01/02 00:50:33;;;;;;;35.67;20.30;;;9.40;99.90;;;;;;10193095;29;20813;-88
2022/01/02 00:55:36;;;;;;;39.97;22.60;;;9.50;99.90;;;;;;10210304;29;20246;-89
2022/01/02 01:00:47;;;;;;;39.70;23.47;;;9.50;99.90;;;;;;10192605;29;20856;-89
2022/01/02 01:05:53;;;;;;;42.80;24.57;;;9.60;99.90;;;;;;10192379;29;20258;-88
2022/01/02 01:10:58;;;;;;;55.77;28.23;;;9.70;99.90;;;;;;10209756;29;20238;-88
2022/01/02 01:16:02;;;;;;;35.30;21.37;;;9.40;99.90;;;;;;10192343;29;20763;-88
2022/01/02 01:21:04;;;;;;;40.97;22.83;;;9.30;99.90;;;;;;10198145;29;20573;-89
2022/01/02 01:26:10;;;;;;;35.50;17.50;;;9.30;99.90;;;;;;10228861;29;20356;-89
2022/01/02 01:31:12;;;;;;;32.60;18.93;;;9.90;99.90;;;;;;10191907;29;20297;-90
2022/01/02 01:36:16;;;;;;;39.23;20.83;;;9.70;99.90;;;;;;10191525;29;20234;-88
2022/01/02 01:41:28;;;;;;;46.80;22.50;;;9.50;99.90;;;;;;10178303;29;20202;-88
2022/01/02 01:46:31;;;;;;;29.27;17.13;;;9.70;99.90;;;;;;10214844;29;20266;-88
2022/01/02 01:51:34;;;;;;;11.97;7.30;;;9.80;99.90;;;;;;10248008;28;20214;-90
2022/01/02 01:56:38;;;;;;;8.93;7.13;;;10.90;99.90;;;;;;10242532;29;20271;-90
2022/01/02 02:01:41;;;;;;;22.77;14.40;;;11.50;99.90;;;;;;10190474;29;20246;-91
2022/01/02 02:06:44;;;;;;;12.50;8.17;;;11.80;99.90;;;;;;10175623;29;20262;-88
2022/01/02 02:11:49;;;;;;;33.07;18.60;;;12.10;99.90;;;;;;10190802;29;20239;-87
2022/01/02 02:16:52;;;;;;;36.53;18.67;;;12.30;99.90;;;;;;10198317;29;20234;-89
2022/01/02 02:21:54;;;;;;;34.13;20.30;;;11.00;99.90;;;;;;10229916;29;20246;-88
2022/01/02 02:26:57;;;;;;;33.70;18.17;;;10.40;99.90;;;;;;10247269;29;20253;-88
2022/01/02 02:31:59;;;;;;;40.53;22.73;;;10.50;99.90;;;;;;10234048;29;20738;-89
2022/01/02 02:37:03;;;;;;;31.53;18.07;;;10.10;99.90;;;;;;10235523;29;20222;-87
2022/01/02 02:42:16;;;;;;;39.77;19.63;;;10.00;99.90;;;;;;10221631;29;20210;-88
2022/01/02 02:52:45;;;;;;;35.40;18.23;;;9.60;99.90;;;;;;10212266;29;20357;-89
2022/01/02 02:57:57;;;;;;;28.03;17.07;;;9.50;99.90;;;;;;10197463;29;20644;-88
2022/01/02 03:03:00;;;;;;;31.40;17.33;;;9.30;99.90;;;;;;10197372;29;20215;-88
2022/01/02 03:08:05;;;;;;;31.27;16.90;;;9.30;99.90;;;;;;10214342;29;20258;-88
2022/01/02 03:13:07;;;;;;;22.33;12.87;;;9.20;99.90;;;;;;10196654;29;20321;-89
2022/01/02 03:18:10;;;;;;;32.23;15.90;;;9.50;99.90;;;;;;10214082;29;20243;-88
2022/01/02 03:23:12;;;;;;;22.50;14.27;;;9.50;99.90;;;;;;10245237;28;20266;-88
2022/01/02 03:28:15;;;;;;;20.10;13.37;;;9.40;99.90;;;;;;10250932;28;20262;-88
2022/01/02 03:33:18;;;;;;;25.13;15.20;;;9.60;99.90;;;;;;10235285;29;20237;-89
2022/01/02 03:38:22;;;;;;;25.63;14.77;;;9.50;99.90;;;;;;10210141;29;20270;-88
2022/01/02 03:43:25;;;;;;;19.13;12.20;;;9.00;99.90;;;;;;10211820;29;20251;-90
2022/01/02 03:48:29;;;;;;;22.83;14.53;;;8.90;99.90;;;;;;10194688;29;20298;-88
2022/01/02 03:53:34;;;;;;;17.60;10.43;;;9.10;99.90;;;;;;10195615;29;20260;-89
2022/01/02 03:58:37;;;;;;;24.50;15.13;;;9.40;99.90;;;;;;10195209;29;20227;-87
2022/01/02 04:03:40;;;;;;;22.00;12.40;;;9.60;99.90;;;;;;10194729;29;20219;-88
2022/01/02 04:08:43;;;;;;;23.07;13.37;;;9.30;99.90;;;;;;10224894;29;20724;-89
2022/01/02 04:13:45;;;;;;;24.67;13.77;;;9.30;99.90;;;;;;10210408;29;20243;-88
2022/01/02 04:18:50;;;;;;;16.67;9.53;;;9.30;99.90;;;;;;10213831;29;20234;-88
2022/01/02 04:23:52;;;;;;;16.90;10.80;;;9.40;99.90;;;;;;10209794;29;20238;-88
2022/01/02 04:28:57;;;;;;;21.67;12.83;;;9.30;99.90;;;;;;10193500;29;20744;-88
2022/01/02 04:34:00;;;;;;;16.67;11.37;;;9.40;99.90;;;;;;10196449;29;20290;-87
2022/01/02 04:39:03;;;;;;;12.13;8.87;;;8.90;99.90;;;;;;10192876;29;20305;-90
2022/01/02 04:44:06;;;;;;;20.27;13.43;;;8.80;99.90;;;;;;10192837;29;20246;-89
2022/01/02 04:49:09;;;;;;;19.50;12.73;;;9.20;99.90;;;;;;10195619;28;20279;-89
2022/01/02 04:54:12;;;;;;;17.30;11.07;;;8.90;99.90;;;;;;10208908;29;20238;-89
2022/01/02 04:59:15;;;;;;;13.13;8.37;;;9.10;99.90;;;;;;10192533;29;20215;-89
2022/01/02 05:04:18;;;;;;;17.60;10.93;;;8.80;99.90;;;;;;10192483;29;20697;-88
2022/01/02 05:09:24;;;;;;;17.77;12.80;;;8.70;99.90;;;;;;10215336;29;20311;-89
2022/01/02 05:14:28;;;;;;;18.93;11.37;;;8.60;99.90;;;;;;10215821;29;20296;-92
2022/01/02 05:19:31;;;;;;;17.83;10.30;;;8.80;99.90;;;;;;10211170;29;20306;-89
2022/01/02 05:24:34;;;;;;;8.77;7.33;;;9.30;99.90;;;;;;10191171;29;20209;-89
2022/01/02 05:29:36;;;;;;;9.93;5.83;;;11.30;99.90;;;;;;10202139;29;20262;-89
2022/01/02 05:34:39;;;;;;;14.53;9.77;;;12.40;99.90;;;;;;10207246;29;20578;-89
2022/01/02 05:39:43;;;;;;;9.30;6.13;;;11.60;99.90;;;;;;10208095;29;20274;-90
2022/01/02 05:44:45;;;;;;;7.30;5.70;;;11.90;99.90;;;;;;10209345;29;20242;-89
2022/01/02 05:49:48;;;;;;;10.13;7.23;;;12.70;99.90;;;;;;10230199;29;20707;-89
2022/01/02 05:54:51;;;;;;;18.27;10.40;;;12.90;99.90;;;;;;10206112;29;20238;-88
2022/01/02 05:59:54;;;;;;;19.63;9.67;;;12.50;99.90;;;;;;10191288;29;20309;-88
2022/01/02 06:04:58;;;;;;;12.40;8.83;;;10.70;99.90;;;;;;10210836;29;20293;-88
2022/01/02 06:10:02;;;;;;;17.77;10.27;;;10.80;99.90;;;;;;10225225;29;20802;-89
2022/01/02 06:15:09;;;;;;;17.43;9.43;;;10.80;99.90;;;;;;10235741;28;20565;-89
2022/01/02 06:20:12;;;;;;;19.63;10.97;;;10.10;99.90;;;;;;10197409;28;20297;-88
2022/01/02 06:25:15;;;;;;;13.43;9.83;;;9.70;99.90;;;;;;10209451;29;20297;-89
2022/01/02 06:30:18;;;;;;;17.37;10.93;;;10.00;99.90;;;;;;10222249;29;21004;-89
2022/01/02 06:35:26;;;;;;;18.57;11.03;;;11.40;99.90;;;;;;10216788;29;20242;-88
2022/01/02 06:40:29;;;;;;;15.27;8.53;;;10.30;99.90;;;;;;10216149;28;20295;-88
2022/01/02 06:45:32;;;;;;;7.43;5.77;;;10.40;99.90;;;;;;10246791;29;20245;-89
2022/01/02 06:50:34;;;;;;;16.20;9.83;;;11.50;99.90;;;;;;10254215;28;20318;-88
2022/01/02 06:55:37;;;;;;;17.03;8.90;;;11.60;99.90;;;;;;10216637;29;20244;-90
2022/01/02 07:00:39;;;;;;;19.53;12.27;;;11.00;99.90;;;;;;10223825;29;20211;-88
2022/01/02 07:05:43;;;;;;;17.73;9.43;;;9.80;99.90;;;;;;10197589;29;20250;-89
2022/01/02 07:10:46;;;;;;;20.83;12.70;;;9.60;99.90;;;;;;10212933;29;20332;-89
2022/01/02 07:15:49;;;;;;;14.80;10.17;;;9.80;99.90;;;;;;10246365;28;20294;-89
2022/01/02 07:20:52;;;;;;;12.20;7.77;;;9.30;99.90;;;;;;10207560;28;20238;-88
2022/01/02 07:25:54;;;;;;;20.03;10.67;;;9.40;99.90;;;;;;10252987;29;20249;-89
2022/01/02 07:30:57;;;;;;;12.80;9.47;;;9.60;99.90;;;;;;10244076;29;20285;-89
2022/01/02 07:35:59;;;;;;;19.20;10.80;;;9.40;99.90;;;;;;10221083;29;20626;-89
2022/01/02 07:41:06;;;;;;;15.37;9.67;;;9.10;99.90;;;;;;10212431;29;20279;-90
2022/01/02 07:46:09;;;;;;;12.00;7.30;;;9.30;99.90;;;;;;10199333;29;20310;-89
2022/01/02 07:51:11;;;;;;;20.53;12.27;;;9.50;99.90;;;;;;10211560;29;20318;-89
2022/01/02 07:56:15;;;;;;;20.23;12.30;;;9.20;99.90;;;;;;10205050;28;20245;-89
2022/01/02 08:01:18;;;;;;;19.47;10.70;;;9.10;99.90;;;;;;10220747;29;20305;-89
2022/01/02 08:06:21;;;;;;;28.53;13.70;;;9.10;99.90;;;;;;10211930;29;20203;-88
2022/01/02 08:11:24;;;;;;;15.40;9.90;;;9.20;99.90;;;;;;10217953;29;20265;-88
2022/01/02 08:16:46;;;;;;;22.90;13.37;;;9.00;99.90;;;;;;10226318;29;20289;-91
2022/01/02 08:21:49;;;;;;;24.77;14.03;;;8.90;99.90;;;;;;10226997;28;20246;-90
2022/01/02 08:26:56;;;;;;;22.93;13.50;;;9.00;99.90;;;;;;10249906;28;20317;-90
2022/01/02 08:31:58;;;;;;;20.40;12.23;;;8.90;99.90;;;;;;10250026;28;20242;-89
2022/01/02 08:37:01;;;;;;;14.77;8.53;;;9.00;99.90;;;;;;10249247;29;20692;-89
2022/01/02 08:42:04;;;;;;;28.30;14.47;;;10.10;99.90;;;;;;10234804;29;20237;-90
2022/01/02 08:47:06;;;;;;;16.83;10.13;;;11.10;99.90;;;;;;10231540;29;20289;-90
2022/01/02 08:52:09;;;;;;;12.27;8.53;;;11.20;99.90;;;;;;10249321;29;20316;-90
2022/01/02 08:57:12;;;;;;;36.57;17.13;;;11.60;99.90;;;;;;10258584;28;20242;-89
2022/01/02 09:02:15;;;;;;;9.27;6.20;;;11.30;99.90;;;;;;10236810;29;20242;-89
2022/01/02 09:07:17;;;;;;;7.37;5.47;;;11.90;99.90;;;;;;10248395;28;20285;-89
2022/01/02 09:12:20;;;;;;;9.03;6.30;;;12.50;99.90;;;;;;10230042;29;20234;-89
2022/01/02 09:17:22;;;;;;;15.47;9.03;;;12.80;99.90;;;;;;10248021;28;20663;-89
2022/01/02 09:22:25;;;;;;;20.23;11.40;;;13.00;99.90;;;;;;10248943;29;20300;-91
2022/01/02 09:27:27;;;;;;;5.57;4.77;;;13.40;99.90;;;;;;10236136;29;20265;-90
2022/01/02 09:32:30;;;;;;;9.13;6.30;;;13.60;99.90;;;;;;10228938;29;20226;-91
2022/01/02 09:37:34;;;;;;;13.63;8.33;;;13.70;99.90;;;;;;10209250;29;20279;-91
2022/01/02 09:42:38;;;;;;;7.73;5.97;;;13.90;99.90;;;;;;10220302;29;20316;-90
2022/01/02 09:47:42;;;;;;;7.23;5.83;;;14.20;99.90;;;;;;10202189;29;20290;-90
2022/01/02 09:52:45;;;;;;;7.23;6.00;;;14.30;99.90;;;;;;10208605;29;20223;-91
2022/01/02 09:57:49;;;;;;;7.00;5.70;;;14.30;99.90;;;;;;10208302;29;20251;-89
2022/01/02 10:03:04;;;;;;;6.70;5.70;;;14.30;99.90;;;;;;10207655;29;20235;-91
2022/01/02 10:08:19;;;;;;;8.07;6.27;;;14.40;99.90;;;;;;10227667;29;20334;-91
2022/01/02 10:14:07;;;;;;;9.17;6.07;;;14.40;99.90;;;;;;10240425;29;20637;-91
2022/01/02 10:19:29;;;;;;;8.43;6.30;;;14.50;99.90;;;;;;10074559;29;20242;-91
2022/01/02 10:24:37;;;;;;;6.93;5.67;;;14.50;99.90;;;;;;10068066;29;20247;-91
2022/01/02 10:29:54;;;;;;;8.07;5.93;;;14.40;99.90;;;;;;10052415;29;20334;-90
2022/01/02 10:35:14;;;;;;;9.13;6.20;;;14.40;99.90;;;;;;10038002;29;20237;-92
2022/01/02 10:40:36;;;;;;;5.80;5.17;;;14.30;99.90;;;;;;10055131;29;20245;-92
2022/01/02 10:45:47;;;;;;;8.77;6.73;;;14.40;99.90;;;;;;10034459;29;20237;-87
2022/01/02 10:51:06;;;;;;;29.23;20.40;;;14.30;99.90;;;;;;10051284;29;20738;-92
2022/01/02 10:56:09;;;;;;;25.67;17.27;;;13.80;99.90;;;;;;10198640;29;20212;-93
2022/01/02 11:01:11;;;;;;;18.17;12.17;;;13.70;99.90;;;;;;10222397;28;20270;-92
2022/01/02 11:06:24;;;;;;;17.43;11.93;;;13.70;99.90;;;;;;10236391;28;20238;-92
2022/01/02 11:11:28;;;;;;;20.77;13.60;;;13.90;99.90;;;;;;10197167;29;20270;-91
2022/01/02 11:16:34;;;;;;;18.50;10.00;;;13.90;99.90;;;;;;10196527;28;20239;-91
2022/01/02 11:21:39;;;;;;;14.70;9.90;;;14.00;99.90;;;;;;10243331;29;20206;-89
2022/01/02 11:26:59;;;;;;;13.53;9.73;;;14.20;99.90;;;;;;10196504;29;20735;-90
2022/01/02 11:32:23;;;;;;;15.13;9.13;;;13.30;99.90;;;;;;10208526;29;20254;-89
2022/01/02 11:37:26;;;;;;;15.23;8.83;;;13.50;99.90;;;;;;10220886;29;20266;-92
2022/01/02 11:42:35;;;;;;;16.73;10.53;;;13.80;99.90;;;;;;10216841;29;20248;-92
2022/01/02 11:47:47;;;;;;;16.80;9.20;;;13.60;99.90;;;;;;10231817;29;20264;-90
2022/01/02 11:53:08;;;;;;;14.07;9.07;;;13.40;99.90;;;;;;10161913;29;20233;-90
2022/01/02 11:58:33;;;;;;;14.57;10.30;;;13.00;99.90;;;;;;10171667;29;20251;-89
2022/01/02 12:03:38;;;;;;;13.43;8.83;;;13.30;99.90;;;;;;10152877;29;20247;-87
2022/01/02 12:08:41;;;;;;;15.63;10.17;;;12.50;99.90;;;;;;10192865;29;20688;-88
2022/01/02 12:13:43;;;;;;;14.50;8.73;;;13.20;99.90;;;;;;10182064;29;20291;-86
2022/01/02 12:18:56;;;;;;;18.57;9.03;;;12.70;99.90;;;;;;10183793;29;20251;-92
2022/01/02 12:24:02;;;;;;;14.93;8.27;;;12.50;99.90;;;;;;10155162;29;20573;-91
2022/01/02 12:29:12;;;;;;;12.20;8.00;;;12.40;99.90;;;;;;10155413;29;20696;-93
2022/01/02 12:34:20;;;;;;;11.70;8.33;;;11.90;99.90;;;;;;10154689;29;20252;-92
2022/01/02 12:39:43;;;;;;;16.37;9.33;;;12.30;99.90;;;;;;10172043;29;20243;-90
2022/01/02 12:44:45;;;;;;;16.53;8.87;;;13.10;99.90;;;;;;10171761;29;20217;-92
2022/01/02 12:50:01;;;;;;;14.70;8.90;;;12.50;99.90;;;;;;10171283;29;20265;-91
2022/01/02 12:55:09;;;;;;;10.43;7.10;;;12.50;99.90;;;;;;10193121;29;20215;-91
2022/01/02 13:00:12;;;;;;;19.33;10.97;;;12.30;99.90;;;;;;10192489;29;20242;-90
2022/01/02 13:05:15;;;;;;;19.53;10.80;;;12.30;99.90;;;;;;10177038;29;20279;-90
2022/01/02 13:10:18;;;;;;;12.67;8.63;;;12.30;99.90;;;;;;10192290;29;20327;-90
2022/01/02 13:15:27;;;;;;;18.03;12.10;;;13.10;99.90;;;;;;10191472;29;20314;-92
2022/01/02 13:20:29;;;;;;;17.93;12.13;;;12.40;99.90;;;;;;10148843;29;20247;-91
2022/01/02 13:25:45;;;;;;;19.43;12.97;;;12.50;99.90;;;;;;10149001;29;20717;-91
2022/01/02 13:30:54;;;;;;;29.37;16.50;;;12.10;99.90;;;;;;10165087;29;20266;-90
2022/01/02 13:36:14;;;;;;;35.10;19.73;;;11.70;99.90;;;;;;10133434;29;20316;-91
2022/01/02 13:41:16;;;;;;;41.70;28.20;;;11.40;99.90;;;;;;10164786;29;20737;-91
2022/01/02 13:46:19;;;;;;;40.37;24.93;;;11.60;99.90;;;;;;10148568;29;20316;-91
2022/01/02 13:51:25;;;;;;;24.63;15.07;;;12.40;99.90;;;;;;10151333;29;20259;-91
2022/01/02 13:56:28;;;;;;;27.03;14.57;;;11.40;99.90;;;;;;10151761;29;20239;-91
2022/01/02 14:01:33;;;;;;;23.20;12.83;;;11.70;99.90;;;;;;10167946;29;20241;-91
2022/01/02 14:06:41;;;;;;;16.87;11.93;;;11.40;99.90;;;;;;10167989;29;20239;-91
2022/01/02 14:11:52;;;;;;;17.27;12.17;;;11.30;99.90;;;;;;10152255;29;20267;-91
2022/01/02 14:22:11;;;;;;;24.90;12.53;;;10.50;99.90;;;;;;10168623;29;20267;-92
2022/01/02 14:27:16;;;;;;;29.30;13.93;;;10.10;99.90;;;;;;10171414;29;20297;-93
2022/01/02 14:32:20;;;;;;;33.63;14.77;;;9.70;99.90;;;;;;10174930;29;20263;-91
2022/01/02 14:37:23;;;;;;;29.53;14.87;;;9.60;99.90;;;;;;10159383;29;20280;-91
2022/01/02 14:42:26;;;;;;;34.70;17.20;;;9.50;99.90;;;;;;10174881;29;20798;-92
2022/01/02 14:47:31;;;;;;;41.50;21.53;;;9.40;99.90;;;;;;10174612;29;20243;-91
2022/01/02 14:52:35;;;;;;;38.43;22.40;;;9.30;99.90;;;;;;10213099;29;20262;-91
2022/01/02 14:57:38;;;;;;;36.97;20.37;;;9.20;99.90;;;;;;10198024;29;20207;-90
2022/01/02 15:02:42;;;;;;;36.70;20.73;;;9.20;99.90;;;;;;10197689;29;20223;-91
2022/01/02 15:07:46;;;;;;;37.47;21.00;;;9.20;99.90;;;;;;10197631;29;20262;-92
2022/01/02 15:12:52;;;;;;;32.17;18.90;;;9.10;99.90;;;;;;10197166;29;20235;-91
2022/01/02 15:17:55;;;;;;;31.57;17.17;;;9.20;99.90;;;;;;10181813;29;20207;-92
2022/01/02 15:22:57;;;;;;;38.37;18.53;;;9.20;99.90;;;;;;10196847;29;20243;-91
2022/01/02 15:28:00;;;;;;;46.80;26.40;;;9.30;99.90;;;;;;10213350;29;20975;-93
2022/01/02 15:33:03;;;;;;;43.70;23.07;;;9.20;99.90;;;;;;10197182;29;20258;-91
2022/01/02 15:38:05;;;;;;;34.97;19.37;;;9.10;99.90;;;;;;10195725;29;20219;-91
2022/01/02 15:43:08;;;;;;;27.80;15.30;;;9.10;99.90;;;;;;10196221;29;20223;-91
2022/01/02 15:48:10;;;;;;;36.70;16.57;;;9.00;99.90;;;;;;10212110;29;20256;-91
2022/01/02 15:53:13;;;;;;;31.63;20.13;;;9.10;99.90;;;;;;10213786;29;20262;-90
2022/01/02 15:58:15;;;;;;;34.87;20.83;;;9.10;99.90;;;;;;10196032;29;20266;-91
2022/01/02 16:03:18;;;;;;;27.03;15.33;;;9.60;99.90;;;;;;10196634;29;20781;-91
2022/01/02 16:08:23;;;;;;;28.43;15.70;;;9.70;99.90;;;;;;10212941;29;20637;-90
2022/01/02 16:13:25;;;;;;;20.73;13.33;;;10.20;99.90;;;;;;10180422;29;20274;-90
2022/01/02 16:18:28;;;;;;;23.57;12.97;;;10.90;99.90;;;;;;10194391;29;20211;-91
2022/01/02 16:23:32;;;;;;;24.70;13.57;;;11.60;99.90;;;;;;10194817;29;20565;-91
2022/01/02 16:28:35;;;;;;;27.17;14.90;;;12.20;99.90;;;;;;10195156;29;20283;-90
2022/01/02 16:33:38;;;;;;;35.47;17.13;;;10.80;99.90;;;;;;10195061;29;20239;-91
2022/01/02 16:38:40;;;;;;;29.60;16.83;;;9.60;99.90;;;;;;10196894;29;20231;-91
2022/01/02 16:43:43;;;;;;;33.93;17.40;;;9.40;99.90;;;;;;10182135;29;20211;-91
2022/01/02 16:48:47;;;;;;;26.40;15.57;;;9.50;99.90;;;;;;10196181;29;20223;-89
2022/01/02 16:53:50;;;;;;;31.00;17.27;;;9.30;99.90;;;;;;10199697;29;20219;-90
2022/01/02 16:58:53;;;;;;;28.67;17.87;;;9.30;99.90;;;;;;10230068;29;20203;-91
2022/01/02 17:03:57;;;;;;;30.53;18.27;;;9.30;99.90;;;;;;10261130;29;20194;-91
2022/01/02 17:08:59;;;;;;;41.87;18.77;;;9.10;99.90;;;;;;10261145;29;20227;-91
2022/01/02 17:14:02;;;;;;;38.07;18.03;;;9.00;99.90;;;;;;10261800;28;20191;-91
2022/01/02 17:19:04;;;;;;;28.73;16.50;;;9.00;99.90;;;;;;10229876;29;20195;-91
2022/01/02 17:24:07;;;;;;;32.33;17.23;;;9.00;99.90;;;;;;10245665;29;20219;-90
2022/01/02 17:29:10;;;;;;;39.23;19.93;;;9.10;99.90;;;;;;10262495;29;20235;-91
2022/01/02 17:34:13;;;;;;;32.80;15.90;;;9.30;99.90;;;;;;10245683;29;20219;-91
2022/01/02 17:39:15;;;;;;;25.17;15.03;;;9.90;99.90;;;;;;10262371;29;20187;-91
2022/01/02 17:44:18;;;;;;;28.87;17.60;;;9.80;99.90;;;;;;10245542;29;20191;-91
2022/01/02 17:49:21;;;;;;;27.87;15.33;;;10.40;99.90;;;;;;10245194;29;20259;-91
2022/01/02 17:54:23;;;;;;;29.03;17.07;;;10.90;99.90;;;;;;10226188;29;20203;-93
2022/01/02 17:59:32;;;;;;;39.57;18.70;;;10.40;99.90;;;;;;10236495;29;20211;-96
2022/01/02 18:04:39;;;;;;;24.10;13.70;;;10.80;99.90;;;;;;10285756;28;20222;-93
2022/01/02 18:15:39;;;;;;;21.37;13.77;;;12.80;99.90;;;;;;10410422;23;20234;-93
2022/01/02 18:20:41;;;;;;;20.50;12.63;;;13.70;99.90;;;;;;10268288;28;20233;-94
2022/01/02 18:25:45;;;;;;;25.03;13.03;;;14.60;99.90;;;;;;10218647;29;20208;-92
2022/01/02 18:30:49;;;;;;;20.63;12.83;;;14.70;99.90;;;;;;10235852;28;20221;-92
2022/01/02 18:35:52;;;;;;;20.00;11.33;;;15.40;99.90;;;;;;10257115;29;20218;-94
2022/01/02 18:41:04;;;;;;;17.87;12.63;;;15.80;99.90;;;;;;10180096;29;20211;-94
2022/01/02 18:46:13;;;;;;;17.73;10.87;;;15.60;99.90;;;;;;10187745;29;20220;-94
2022/01/02 18:51:29;;;;;;;17.17;11.43;;;15.90;99.90;;;;;;10175051;29;20234;-92
2022/01/02 18:56:35;;;;;;;18.60;11.33;;;16.10;99.90;;;;;;10096123;29;20213;-93
2022/01/02 19:01:39;;;;;;;17.10;11.43;;;;;;;;;;10027749;29;20222;-95
2022/01/02 19:06:53;;;;;;;18.20;11.33;;;;;;;;;;10022025;29;20207;-95
2022/01/02 19:12:05;;;;;;;15.50;10.73;;;;;;;;;;10018508;29;20242;-94
2022/01/02 19:17:09;;;;;;;16.17;11.23;;;;;;;;;;10075276;29;20333;-93
2022/01/02 19:22:23;;;;;;;13.90;10.10;;;;;;;;;;10112297;29;20217;-95
2022/01/02 19:27:26;;;;;;;16.60;10.90;;;16.20;99.90;;;;;;10112197;29;20230;-93
2022/01/02 20:00:27;;;;;;;14.80;9.30;;;15.90;99.90;;;;;;10270910;28;20308;-95
2022/01/02 20:05:31;;;;;;;13.57;8.73;;;16.00;99.90;;;;;;10263622;29;20246;-95
2022/01/02 20:10:35;;;;;;;16.73;9.73;;;15.90;99.90;;;;;;10236647;29;20272;-93
2022/01/02 20:15:38;;;;;;;12.40;9.47;;;15.70;99.90;;;;;;10292379;28;20202;-93
2022/01/02 20:20:45;;;;;;;12.73;8.73;;;16.20;99.90;;;;;;10240494;29;20217;-94
2022/01/02 20:25:49;;;;;;;15.67;9.77;;;15.60;99.90;;;;;;10220867;29;20212;-94
2022/01/02 20:30:54;;;;;;;13.83;8.30;;;16.00;99.90;;;;;;10223196;29;20234;-94
2022/01/02 20:35:57;;;;;;;11.83;8.83;;;16.00;99.90;;;;;;10219712;29;20199;-95
2022/01/02 20:41:01;;;;;;;11.67;7.57;;;16.00;99.90;;;;;;10232299;29;20622;-93
2022/01/02 20:46:04;;;;;;;12.70;8.60;;;15.60;99.90;;;;;;10216164;29;20219;-95
2022/01/02 20:51:07;;;;;;;13.60;9.10;;;16.00;99.90;;;;;;10272740;28;20225;-93
2022/01/02 20:56:11;;;;;;;12.33;8.87;;;16.10;99.90;;;;;;10260844;29;20730;-94
2022/01/02 21:01:14;;;;;;;11.07;8.67;;;16.00;99.90;;;;;;10245952;28;20221;-94
2022/01/02 21:06:18;;;;;;;9.73;6.80;;;15.90;99.90;;;;;;10270412;28;20207;-94
2022/01/02 21:11:20;;;;;;;12.37;8.50;;;15.90;99.90;;;;;;10212281;23;20698;-81
2022/01/02 21:16:24;;;;;;;10.10;8.03;;;15.80;99.90;;;;;;10205724;29;20299;-80
2022/01/02 21:21:26;;;;;;;9.83;7.87;;;15.80;99.90;;;;;;10184773;29;20298;-82
2022/01/02 21:26:29;;;;;;;10.03;7.73;;;16.00;99.90;;;;;;10200419;29;20237;-82
2022/01/02 21:31:34;;;;;;;11.57;8.27;;;15.80;99.90;;;;;;10206334;29;20661;-82
2022/01/02 21:36:37;;;;;;;7.03;5.67;;;15.40;99.90;;;;;;10201774;29;20241;-82
2022/01/02 21:41:42;;;;;;;10.53;8.40;;;15.40;99.90;;;;;;10200584;29;20229;-82
2022/01/02 21:46:46;;;;;;;11.57;7.37;;;15.20;99.90;;;;;;10205099;29;20249;-82
2022/01/02 21:51:50;;;;;;;9.07;7.40;;;15.60;99.90;;;;;;10188108;29;20325;-79
2022/01/02 21:56:52;;;;;;;10.20;7.50;;;15.30;99.90;;;;;;10199096;29;20246;-79
2022/01/02 22:01:59;;;;;;;8.03;5.97;;;15.60;99.90;;;;;;10176383;29;20301;-79
2022/01/02 22:07:03;;;;;;;9.47;7.40;;;15.40;99.90;;;;;;10203894;29;20241;-79
2022/01/02 22:12:06;;;;;;;9.73;7.57;;;15.70;99.90;;;;;;10188288;29;20317;-78
2022/01/02 22:17:10;;;;;;;10.07;7.20;;;15.70;99.90;;;;;;10187868;29;20278;-81
2022/01/02 22:22:14;;;;;;;8.03;6.73;;;15.30;99.90;;;;;;10188052;29;20293;-82
2022/01/02 22:27:19;;;;;;;9.40;8.20;;;15.40;99.90;;;;;;10206422;29;20312;-82
2022/01/02 22:32:27;;;;;;;8.03;6.73;;;15.60;99.90;;;;;;10194411;29;20262;-82
2022/01/02 22:37:31;;;;;;;8.13;5.00;;;15.50;99.90;;;;;;10212701;29;20226;-82
2022/01/02 22:42:33;;;;;;;4.57;3.07;;;15.30;99.90;;;;;;10185197;29;21054;-82
2022/01/02 22:47:37;;;;;;;8.70;6.30;;;14.90;99.10;;;;;;10183094;29;20238;-81
2022/01/02 22:52:42;;;;;;;10.43;5.17;;;15.50;99.90;;;;;;10158455;29;20318;-81
2022/01/02 22:57:47;;;;;;;6.87;5.03;;;15.40;99.90;;;;;;10175164;29;20305;-81
2022/01/02 23:02:49;;;;;;;9.50;6.17;;;15.40;99.90;;;;;;10178601;29;20243;-80
2022/01/02 23:07:52;;;;;;;7.30;6.27;;;15.50;99.90;;;;;;10157642;29;20980;-80
2022/01/02 23:12:55;;;;;;;9.33;5.87;;;15.50;99.90;;;;;;10204393;29;20262;-80
2022/01/02 23:17:59;;;;;;;6.60;6.00;;;15.20;99.90;;;;;;10211972;29;20237;-80
2022/01/02 23:23:02;;;;;;;7.13;6.07;;;15.20;99.90;;;;;;10183094;29;20238;-80
2022/01/02 23:28:08;;;;;;;6.97;5.73;;;15.40;99.90;;;;;;10212544;29;20667;-80
2022/01/02 23:33:11;;;;;;;6.90;6.07;;;15.40;99.90;;;;;;10195237;29;20265;-80
2022/01/02 23:38:13;;;;;;;8.60;6.37;;;15.20;99.90;;;;;;10213288;29;20242;-80
2022/01/02 23:43:17;;;;;;;7.93;6.90;;;15.40;99.90;;;;;;10212242;29;20295;-80
2022/01/02 23:48:20;;;;;;;7.33;5.13;;;15.50;99.90;;;;;;10226810;28;20211;-80
2022/01/02 23:53:23;;;;;;;6.33;5.50;;;15.40;99.90;;;;;;10212219;29;20705;-80
2022/01/02 23:58:26;;;;;;;7.70;5.43;;;15.40;99.90;;;;;;10185800;29;20756;-80
